createdAt,value
2017-07-17T03:00:26.433Z,81.4
2017-07-17T03:01:27.792Z,81.4
2017-07-17T03:02:49.324Z,81.1
2017-07-17T03:03:50.680Z,81.6
2017-07-17T03:05:12.206Z,81.0
2017-07-17T03:06:13.562Z,81.8
2017-07-17T03:07:35.092Z,81.3
2017-07-17T03:08:36.451Z,80.7
2017-07-17T03:09:57.964Z,81.2
2017-07-17T03:10:59.322Z,81.2
2017-07-17T03:12:20.863Z,80.7
2017-07-17T03:13:22.218Z,81.0
2017-07-17T03:14:43.735Z,80.7
2017-07-17T03:15:45.094Z,80.8
2017-07-17T03:17:06.628Z,80.4
2017-07-17T03:18:07.987Z,80.4
2017-07-17T03:19:29.503Z,81.3
2017-07-17T03:20:30.864Z,81.2
2017-07-17T03:21:52.395Z,81.4
2017-07-17T03:22:53.753Z,80.9
2017-07-17T03:24:15.265Z,80.7
2017-07-17T03:25:16.624Z,80.7
2017-07-17T03:26:38.160Z,80.4
2017-07-17T03:27:39.520Z,80.4
2017-07-17T03:29:01.033Z,80.4
2017-07-17T03:30:02.392Z,80.0
2017-07-17T03:31:23.909Z,79.5
2017-07-17T03:32:25.268Z,79.9
2017-07-17T03:33:46.803Z,79.7
2017-07-17T03:34:48.161Z,79.2
2017-07-17T03:36:09.674Z,80.0
2017-07-17T03:37:11.034Z,80.0
2017-07-17T03:38:32.567Z,79.6
2017-07-17T03:39:33.925Z,79.3
2017-07-17T03:40:55.440Z,79.8
2017-07-17T03:41:56.800Z,79.6
2017-07-17T03:43:18.332Z,79.6
2017-07-17T03:44:19.690Z,79.9
2017-07-17T03:45:41.207Z,80.6
2017-07-17T03:46:42.568Z,80.4
2017-07-17T03:48:04.102Z,80.7
2017-07-17T03:49:05.462Z,79.7
2017-07-17T03:50:26.982Z,79.7
2017-07-17T03:51:28.344Z,79.7
2017-07-17T03:52:49.874Z,79.6
2017-07-17T03:53:51.286Z,79.3
2017-07-17T03:55:12.802Z,79.4
2017-07-17T03:56:14.164Z,79.2
2017-07-17T03:57:35.695Z,79.7
2017-07-17T03:58:37.056Z,80.3
2017-07-17T03:59:58.572Z,80.9
2017-07-17T04:00:59.941Z,80.6
2017-07-17T04:02:21.466Z,80.8
2017-07-17T04:03:22.827Z,80.8
2017-07-17T04:04:44.341Z,80.5
2017-07-17T04:05:45.705Z,80.4
2017-07-17T04:07:07.236Z,80.7
2017-07-17T04:08:08.596Z,81.1
2017-07-17T04:09:30.112Z,82.5
2017-07-17T04:10:31.472Z,81.0
2017-07-17T04:11:53.007Z,81.3
2017-07-17T04:12:54.365Z,81.0
2017-07-17T04:14:15.880Z,81.3
2017-07-17T04:15:17.243Z,80.4
2017-07-17T04:16:38.757Z,80.7
2017-07-17T04:17:40.118Z,80.7
2017-07-17T04:19:01.651Z,80.8
2017-07-17T04:20:03.012Z,80.3
2017-07-17T04:21:24.530Z,80.4
2017-07-17T04:22:25.888Z,80.4
2017-07-17T04:23:47.423Z,80.0
2017-07-17T04:24:48.782Z,79.5
2017-07-17T04:26:10.296Z,79.3
2017-07-17T04:27:11.657Z,79.8
2017-07-17T04:28:33.190Z,79.7
2017-07-17T04:29:34.548Z,79.6
2017-07-17T04:30:56.063Z,79.5
2017-07-17T04:31:57.425Z,79.5
2017-07-17T04:33:18.961Z,79.4
2017-07-17T04:34:20.321Z,79.8
2017-07-17T04:35:41.842Z,79.7
2017-07-17T04:36:43.204Z,79.7
2017-07-17T04:38:04.735Z,79.4
2017-07-17T04:39:06.095Z,79.5
2017-07-17T04:40:27.612Z,79.7
2017-07-17T04:41:28.974Z,80.0
2017-07-17T04:42:50.505Z,79.9
2017-07-17T04:43:51.867Z,79.7
2017-07-17T04:45:13.386Z,79.9
2017-07-17T04:46:14.747Z,79.7
2017-07-17T04:47:36.279Z,80.5
2017-07-17T04:48:37.642Z,80.4
2017-07-17T04:49:59.193Z,80.5
2017-07-17T04:51:00.516Z,80.7
2017-07-17T04:52:22.177Z,80.3
2017-07-17T04:53:23.537Z,80.9
2017-07-17T04:54:45.054Z,81.0
2017-07-17T04:55:46.414Z,81.5
2017-07-17T04:57:07.955Z,81.4
2017-07-17T04:58:09.314Z,81.5
2017-07-17T04:59:30.833Z,81.8
2017-07-17T05:00:32.197Z,81.4
2017-07-17T05:01:54.702Z,81.2
2017-07-17T05:02:56.068Z,81.1
2017-07-17T05:04:17.600Z,81.4
2017-07-17T05:05:18.958Z,81.7
2017-07-17T05:06:40.484Z,81.6
2017-07-17T05:07:41.839Z,81.4
2017-07-17T05:09:03.373Z,80.8
2017-07-17T05:10:04.736Z,80.5
2017-07-17T05:11:26.254Z,80.5
2017-07-17T05:12:27.618Z,80.6
2017-07-17T05:13:49.150Z,80.4
2017-07-17T05:14:50.514Z,80.3
2017-07-17T05:16:12.162Z,80.4
2017-07-17T05:17:13.519Z,79.7
2017-07-17T05:18:35.055Z,79.2
2017-07-17T05:19:36.417Z,79.3
2017-07-17T05:20:57.936Z,79.3
2017-07-17T05:21:59.304Z,79.2
2017-07-17T05:23:20.832Z,78.6
2017-07-17T05:24:22.195Z,78.8
2017-07-17T05:25:43.717Z,78.2
2017-07-17T05:26:45.079Z,77.7
2017-07-17T05:28:06.614Z,77.4
2017-07-17T05:29:07.977Z,76.6
2017-07-17T05:30:29.505Z,75.5
2017-07-17T05:31:30.860Z,75.5
2017-07-17T05:32:52.397Z,75.4
2017-07-17T05:33:53.759Z,75.4
2017-07-17T05:35:15.278Z,76.2
2017-07-17T05:36:16.643Z,75.6
2017-07-17T05:37:38.181Z,74.7
2017-07-17T05:38:39.542Z,75.5
2017-07-17T05:40:01.065Z,76.6
2017-07-17T05:41:02.430Z,76.5
2017-07-17T05:42:23.963Z,76.9
2017-07-17T05:43:25.328Z,77.5
2017-07-17T05:44:46.848Z,77.8
2017-07-17T05:45:48.212Z,77.7
2017-07-17T05:47:09.730Z,77.8
2017-07-17T05:48:11.092Z,77.6
2017-07-17T05:49:32.628Z,77.0
2017-07-17T05:50:33.992Z,76.6
2017-07-17T05:51:55.513Z,76.2
2017-07-17T05:52:56.875Z,76.5
2017-07-17T05:54:18.411Z,76.9
2017-07-17T05:55:19.773Z,77.2
2017-07-17T05:56:41.299Z,76.8
2017-07-17T05:57:42.660Z,77.0
2017-07-17T05:59:04.192Z,77.2
2017-07-17T06:00:05.566Z,76.6
2017-07-17T06:01:27.086Z,77.7
2017-07-17T06:02:28.449Z,76.9
2017-07-17T06:03:49.983Z,77.7
2017-07-17T06:04:51.345Z,77.4
2017-07-17T06:06:12.865Z,77.7
2017-07-17T06:07:14.237Z,77.8
2017-07-17T06:08:35.799Z,77.7
2017-07-17T06:09:37.129Z,77.3
2017-07-17T06:10:58.648Z,77.5
2017-07-17T06:12:00.011Z,78.0
2017-07-17T06:13:21.546Z,77.8
2017-07-17T06:14:22.908Z,78.3
2017-07-17T06:15:44.426Z,78.0
2017-07-17T06:16:45.790Z,77.3
2017-07-17T06:18:07.326Z,77.7
2017-07-17T06:19:08.692Z,76.8
2017-07-17T06:20:30.208Z,77.5
2017-07-17T06:21:31.571Z,77.7
2017-07-17T06:22:53.106Z,78.1
2017-07-17T06:23:54.466Z,78.2
2017-07-17T06:25:15.985Z,77.6
2017-07-17T06:26:17.353Z,78.4
2017-07-17T06:27:38.890Z,78.3
2017-07-17T06:28:40.252Z,77.6
2017-07-17T06:30:01.771Z,77.9
2017-07-17T06:31:03.133Z,78.9
2017-07-17T06:32:24.647Z,77.6
2017-07-17T06:33:26.011Z,77.7
2017-07-17T06:34:47.566Z,76.4
2017-07-17T06:35:48.911Z,75.9
2017-07-17T06:37:10.430Z,75.6
2017-07-17T06:38:11.795Z,75.4
2017-07-17T06:39:33.329Z,74.6
2017-07-17T06:40:34.691Z,73.9
2017-07-17T06:41:56.209Z,74.6
2017-07-17T06:42:57.576Z,73.6
2017-07-17T06:44:19.114Z,73.5
2017-07-17T06:45:20.479Z,72.1
2017-07-17T06:46:42.001Z,71.8
2017-07-17T06:47:43.367Z,71.7
2017-07-17T06:49:04.907Z,69.9
2017-07-17T06:50:06.271Z,69.3
2017-07-17T06:51:27.806Z,69.5
2017-07-17T06:52:29.163Z,68.2
2017-07-17T06:53:50.701Z,67.2
2017-07-17T06:54:52.067Z,64.5
2017-07-17T06:56:13.590Z,64.1
2017-07-17T06:57:14.957Z,64.9
2017-07-17T06:58:36.498Z,63.8
2017-07-17T06:59:37.862Z,65.4
2017-07-17T07:00:59.386Z,65.4
2017-07-17T07:02:00.752Z,65.7
2017-07-17T07:03:22.294Z,65.4
2017-07-17T07:04:23.660Z,65.5
2017-07-17T07:05:45.195Z,65.2
2017-07-17T07:06:46.567Z,63.9
2017-07-17T07:08:08.086Z,63.2
2017-07-17T07:09:09.452Z,63.1
2017-07-17T07:10:30.976Z,61.9
2017-07-17T07:11:32.341Z,62.3
2017-07-17T07:12:53.903Z,61.8
2017-07-17T07:13:55.232Z,62.3
2017-07-17T07:15:16.770Z,62.1
2017-07-17T07:16:18.134Z,62.1
2017-07-17T07:17:39.656Z,61.8
2017-07-17T07:18:41.023Z,61.5
2017-07-17T07:20:02.569Z,61.5
2017-07-17T07:21:03.932Z,60.8
2017-07-17T07:22:25.457Z,60.9
2017-07-17T07:23:26.825Z,59.8
2017-07-17T07:24:48.369Z,58.4
2017-07-17T07:25:49.736Z,59.4
2017-07-17T07:27:11.261Z,56.6
2017-07-17T07:28:12.629Z,57.9
2017-07-17T07:29:34.170Z,56.9
2017-07-17T07:30:35.541Z,56.6
2017-07-17T07:31:57.064Z,57.1
2017-07-17T07:32:58.433Z,56.2
2017-07-17T07:34:19.977Z,56.6
2017-07-17T07:35:21.342Z,55.3
2017-07-17T07:36:42.868Z,57.7
2017-07-17T07:37:44.233Z,57.9
2017-07-17T07:39:05.770Z,57.2
2017-07-17T07:40:07.138Z,56.8
2017-07-17T07:41:28.659Z,54.9
2017-07-17T07:42:30.028Z,57.2
2017-07-17T07:43:51.566Z,57.8
2017-07-17T07:44:52.932Z,57.9
2017-07-17T07:46:14.455Z,58.3
2017-07-17T07:47:15.821Z,59.2
2017-07-17T07:48:37.362Z,58.3
2017-07-17T07:49:38.723Z,58.5
2017-07-17T07:51:00.246Z,57.1
2017-07-17T07:52:01.614Z,57.0
2017-07-17T07:53:23.151Z,57.7
2017-07-17T07:54:24.517Z,57.8
2017-07-17T07:55:46.041Z,56.4
2017-07-17T07:56:47.405Z,56.6
2017-07-17T07:58:08.926Z,56.6
2017-07-17T07:59:10.292Z,55.9
2017-07-17T08:00:31.831Z,54.2
2017-07-17T08:01:33.194Z,55.0
2017-07-17T08:02:54.718Z,54.4
2017-07-17T08:03:56.086Z,53.3
2017-07-17T08:05:17.627Z,53.9
2017-07-17T08:06:18.990Z,53.7
2017-07-17T08:07:40.513Z,53.0
2017-07-17T08:08:41.881Z,54.3
2017-07-17T08:10:03.418Z,54.8
2017-07-17T08:11:04.783Z,55.1
2017-07-17T08:12:26.305Z,55.2
2017-07-17T08:13:27.672Z,56.1
2017-07-17T08:14:49.211Z,57.0
2017-07-17T08:15:50.579Z,56.8
2017-07-17T08:17:12.099Z,53.7
2017-07-17T08:18:13.471Z,53.5
2017-07-17T08:19:35.002Z,53.0
2017-07-17T08:20:36.366Z,52.0
2017-07-17T08:21:57.890Z,52.8
2017-07-17T08:22:59.254Z,52.4
2017-07-17T08:24:20.792Z,52.0
2017-07-17T08:25:22.158Z,52.3
2017-07-17T08:26:43.682Z,51.3
2017-07-17T08:27:45.049Z,50.8
2017-07-17T08:29:06.585Z,51.7
2017-07-17T08:30:07.951Z,52.3
2017-07-17T08:31:29.474Z,52.4
2017-07-17T08:32:30.841Z,53.1
2017-07-17T08:33:52.646Z,54.2
2017-07-17T08:34:54.047Z,52.4
2017-07-17T08:36:15.573Z,51.8
2017-07-17T08:37:16.938Z,51.1
2017-07-17T08:38:38.477Z,51.0
2017-07-17T08:39:40.049Z,52.4
2017-07-17T08:41:01.886Z,51.9
2017-07-17T08:42:03.480Z,51.0
2017-07-17T08:43:25.249Z,53.2
2017-07-17T08:44:26.621Z,51.0
2017-07-17T08:45:48.156Z,51.3
2017-07-17T08:46:49.861Z,51.8
2017-07-17T08:48:11.475Z,52.0
2017-07-17T08:49:12.837Z,52.4
2017-07-17T08:50:34.379Z,53.6
2017-07-17T08:51:35.744Z,53.1
2017-07-17T08:52:57.267Z,50.5
2017-07-17T08:53:58.634Z,48.7
2017-07-17T08:55:20.327Z,49.3
2017-07-17T08:56:21.692Z,49.5
2017-07-17T08:57:43.213Z,51.4
2017-07-17T08:58:44.578Z,50.5
2017-07-17T09:00:06.120Z,50.7
2017-07-17T09:01:07.486Z,49.3
2017-07-17T09:02:29.008Z,48.5
2017-07-17T09:03:30.372Z,49.1
2017-07-17T09:04:51.916Z,51.2
2017-07-17T09:05:53.280Z,49.2
2017-07-17T09:07:14.801Z,49.9
2017-07-17T09:08:16.169Z,49.7
2017-07-17T09:09:37.710Z,50.7
2017-07-17T09:10:39.075Z,48.7
2017-07-17T09:12:00.599Z,49.4
2017-07-17T09:13:01.964Z,48.6
2017-07-17T09:14:24.390Z,48.6
2017-07-17T09:15:25.725Z,49.2
2017-07-17T09:16:47.252Z,50.6
2017-07-17T09:17:48.617Z,50.3
2017-07-17T09:19:10.162Z,50.9
2017-07-17T09:20:11.523Z,50.1
2017-07-17T09:21:33.049Z,48.5
2017-07-17T09:22:34.414Z,48.8
2017-07-17T09:23:55.961Z,49.4
2017-07-17T09:24:57.326Z,48.4
2017-07-17T09:26:18.850Z,48.5
2017-07-17T09:27:20.220Z,49.3
2017-07-17T09:28:41.739Z,48.6
2017-07-17T09:29:43.105Z,49.5
2017-07-17T09:31:04.645Z,48.9
2017-07-17T09:32:06.011Z,49.5
2017-07-17T09:33:27.531Z,49.8
2017-07-17T09:34:28.898Z,49.6
2017-07-17T09:35:50.697Z,46.5
2017-07-17T09:36:52.097Z,45.8
2017-07-17T09:38:13.624Z,46.9
2017-07-17T09:39:14.988Z,46.8
2017-07-17T09:40:37.570Z,45.0
2017-07-17T09:41:39.078Z,45.9
2017-07-17T09:43:00.715Z,47.4
2017-07-17T09:44:02.116Z,47.5
2017-07-17T09:45:23.733Z,46.5
2017-07-17T09:46:25.686Z,45.8
2017-07-17T09:47:47.203Z,47.4
2017-07-17T09:48:48.571Z,47.0
2017-07-17T09:50:10.113Z,48.7
2017-07-17T09:51:11.479Z,48.0
2017-07-17T09:52:33.002Z,50.0
2017-07-17T09:53:34.371Z,48.3
2017-07-17T09:54:55.912Z,47.6
2017-07-17T09:55:57.284Z,47.8
2017-07-17T09:57:19.326Z,48.7
2017-07-17T09:58:20.684Z,47.5
2017-07-17T09:59:42.233Z,48.2
2017-07-17T10:00:43.598Z,49.4
2017-07-17T10:02:05.117Z,46.9
2017-07-17T10:03:06.483Z,45.7
2017-07-17T10:04:28.031Z,44.7
2017-07-17T10:05:29.395Z,44.4
2017-07-17T10:06:50.915Z,45.3
2017-07-17T10:07:52.280Z,46.2
2017-07-17T10:09:13.822Z,45.6
2017-07-17T10:10:15.188Z,46.7
2017-07-17T10:11:36.712Z,46.9
2017-07-17T10:12:38.078Z,44.6
2017-07-17T10:13:59.671Z,43.7
2017-07-17T10:15:01.046Z,42.6
2017-07-17T10:16:22.586Z,42.0
2017-07-17T10:17:23.949Z,42.3
2017-07-17T10:18:45.485Z,43.3
2017-07-17T10:19:47.330Z,44.3
2017-07-17T10:21:09.469Z,43.3
2017-07-17T10:22:10.832Z,43.3
2017-07-17T10:23:32.357Z,42.1
2017-07-17T10:24:33.725Z,42.2
2017-07-17T10:25:55.264Z,42.1
2017-07-17T10:26:57.046Z,42.2
2017-07-17T10:28:18.576Z,44.2
2017-07-17T10:29:20.061Z,43.3
2017-07-17T10:30:41.605Z,42.3
2017-07-17T10:31:42.974Z,43.5
2017-07-17T10:33:04.498Z,45.0
2017-07-17T10:34:05.863Z,44.5
2017-07-17T10:35:27.561Z,42.7
2017-07-17T10:36:28.927Z,43.7
2017-07-17T10:37:50.448Z,45.1
2017-07-17T10:38:52.737Z,42.7
2017-07-17T10:40:14.277Z,43.7
2017-07-17T10:41:15.641Z,44.2
2017-07-17T10:42:37.531Z,43.0
2017-07-17T10:43:38.896Z,44.2
2017-07-17T10:45:00.453Z,44.8
2017-07-17T10:46:01.826Z,44.3
2017-07-17T10:47:23.582Z,44.0
2017-07-17T10:48:24.946Z,43.0
2017-07-17T10:49:46.640Z,43.9
2017-07-17T10:50:48.038Z,45.0
2017-07-17T10:52:09.562Z,45.6
2017-07-17T10:53:10.966Z,44.0
2017-07-17T10:54:32.516Z,44.4
2017-07-17T10:55:33.883Z,42.2
2017-07-17T10:56:55.450Z,43.6
2017-07-17T10:57:56.856Z,44.3
2017-07-17T10:59:18.379Z,42.3
2017-07-17T11:00:19.780Z,41.0
2017-07-17T11:01:41.409Z,42.7
2017-07-17T11:02:42.774Z,40.0
2017-07-17T11:04:04.338Z,41.1
2017-07-17T11:05:05.706Z,39.8
2017-07-17T11:06:27.245Z,39.8
2017-07-17T11:07:28.614Z,41.7
2017-07-17T11:08:50.134Z,40.3
2017-07-17T11:09:51.537Z,40.1
2017-07-17T11:11:13.151Z,39.0
2017-07-17T11:12:14.523Z,38.9
2017-07-17T11:13:36.056Z,40.3
2017-07-17T11:14:37.428Z,39.3
2017-07-17T11:15:59.043Z,40.2
2017-07-17T11:17:00.420Z,39.3
2017-07-17T11:18:21.948Z,38.7
2017-07-17T11:19:23.311Z,39.7
2017-07-17T11:20:44.934Z,39.4
2017-07-17T11:21:46.375Z,38.7
2017-07-17T11:23:07.955Z,41.7
2017-07-17T11:24:09.363Z,41.3
2017-07-17T11:25:31.121Z,39.7
2017-07-17T11:26:32.506Z,39.1
2017-07-17T11:27:54.095Z,37.8
2017-07-17T11:28:55.533Z,38.2
2017-07-17T11:30:17.078Z,39.4
2017-07-17T11:31:18.439Z,39.1
2017-07-17T11:33:41.226Z,40.4
2017-07-17T11:35:02.806Z,37.9
2017-07-17T11:36:04.232Z,38.4
2017-07-17T11:37:25.824Z,38.2
2017-07-17T11:38:27.199Z,38.7
2017-07-17T11:39:48.748Z,39.9
2017-07-17T11:40:50.115Z,38.8
2017-07-17T11:42:11.668Z,39.0
2017-07-17T11:43:13.985Z,39.1
2017-07-17T11:44:35.596Z,41.4
2017-07-17T11:45:36.962Z,40.3
2017-07-17T11:56:12.109Z,39.8
2017-07-17T11:57:13.894Z,39.0
2017-07-17T11:58:35.467Z,39.4
2017-07-17T11:59:37.282Z,38.2
2017-07-17T12:00:59.454Z,37.2
2017-07-17T12:02:00.871Z,37.9
2017-07-17T12:03:22.469Z,36.4
2017-07-17T12:04:23.882Z,35.9
2017-07-17T12:05:45.483Z,37.4
2017-07-17T12:06:46.856Z,38.4
2017-07-17T12:08:08.421Z,37.5
2017-07-17T12:09:09.783Z,37.7
2017-07-17T12:10:31.324Z,41.5
2017-07-17T12:11:32.693Z,37.9
2017-07-17T12:12:54.216Z,36.6
2017-07-17T12:13:55.584Z,38.1
2017-07-17T12:15:17.272Z,36.6
2017-07-17T12:16:18.656Z,36.3
2017-07-17T12:17:40.173Z,37.7
2017-07-17T12:18:41.541Z,37.6
2017-07-17T12:20:03.071Z,37.5
2017-07-17T12:21:04.429Z,37.5
2017-07-17T12:22:26.011Z,38.3
2017-07-17T12:23:27.379Z,37.2
2017-07-17T12:24:48.908Z,37.7
2017-07-17T12:25:50.273Z,38.8
2017-07-17T12:27:11.810Z,38.2
2017-07-17T12:28:13.184Z,37.8
2017-07-17T12:29:34.699Z,38.5
2017-07-17T12:30:36.065Z,40.6
2017-07-17T12:31:57.644Z,38.5
2017-07-17T12:32:59.134Z,37.2
2017-07-17T12:34:20.673Z,38.0
2017-07-17T12:35:22.037Z,37.4
2017-07-17T12:36:43.580Z,36.0
2017-07-17T12:37:44.945Z,37.2
2017-07-17T12:39:06.650Z,39.2
2017-07-17T12:40:08.016Z,37.7
2017-07-17T12:41:29.558Z,37.8
2017-07-17T12:42:30.923Z,39.1
2017-07-17T12:43:53.502Z,39.5
2017-07-17T12:44:54.867Z,37.4
2017-07-17T12:46:16.426Z,36.1
2017-07-17T12:47:17.771Z,34.4
2017-07-17T12:48:39.348Z,35.4
2017-07-17T12:49:40.731Z,35.2
2017-07-17T12:51:02.276Z,35.7
2017-07-17T12:52:03.641Z,36.7
2017-07-17T12:53:25.163Z,35.6
2017-07-17T12:54:26.537Z,36.4
2017-07-17T12:55:48.072Z,38.0
2017-07-17T12:56:49.438Z,38.3
2017-07-17T12:58:10.962Z,38.4
2017-07-17T12:59:12.325Z,38.3
2017-07-17T13:00:33.867Z,38.3
2017-07-17T13:01:35.322Z,39.6
2017-07-17T13:02:56.852Z,36.7
2017-07-17T13:03:58.225Z,36.7
2017-07-17T13:05:19.737Z,36.6
2017-07-17T13:06:21.105Z,37.2
2017-07-17T13:07:42.656Z,37.5
2017-07-17T13:08:44.018Z,37.3
2017-07-17T13:10:05.544Z,35.2
2017-07-17T13:11:06.904Z,34.1
2017-07-17T13:12:28.689Z,35.8
2017-07-17T13:13:30.054Z,35.2
2017-07-17T13:14:54.947Z,34.6
2017-07-17T13:15:56.328Z,35.4
2017-07-17T13:17:17.872Z,34.1
2017-07-17T13:18:20.770Z,34.6
2017-07-17T13:19:42.252Z,34.0
2017-07-17T13:20:44.174Z,34.2
2017-07-17T13:22:05.657Z,36.0
2017-07-17T13:23:07.917Z,35.6
2017-07-17T13:24:29.380Z,35.6
2017-07-17T13:25:30.737Z,38.8
2017-07-17T13:26:52.278Z,32.8
2017-07-17T13:27:54.292Z,33.4
2017-07-17T13:29:15.853Z,35.0
2017-07-17T13:30:17.222Z,36.5
2017-07-17T13:31:38.767Z,36.7
2017-07-17T13:32:40.130Z,33.5
2017-07-17T13:34:01.662Z,35.1
2017-07-17T13:35:03.027Z,34.7
2017-07-17T13:36:25.588Z,32.9
2017-07-17T13:37:26.980Z,33.0
2017-07-17T13:38:48.483Z,32.8
2017-07-17T13:39:49.852Z,32.9
2017-07-17T13:41:11.390Z,35.2
2017-07-17T13:42:12.756Z,32.5
2017-07-17T13:43:34.279Z,34.1
2017-07-17T13:44:35.645Z,33.1
2017-07-17T13:45:57.189Z,33.7
2017-07-17T13:46:58.554Z,33.8
2017-07-17T13:48:20.087Z,33.9
2017-07-17T13:49:21.450Z,35.3
2017-07-17T13:50:42.985Z,34.2
2017-07-17T13:51:44.359Z,35.2
2017-07-17T13:53:05.905Z,35.5
2017-07-17T13:54:07.284Z,33.7
2017-07-17T13:55:28.812Z,34.5
2017-07-17T13:56:30.185Z,33.0
2017-07-17T13:57:51.736Z,33.0
2017-07-17T13:58:53.107Z,34.6
2017-07-17T14:00:14.635Z,32.1
2017-07-17T14:01:16.006Z,31.8
2017-07-17T14:02:37.559Z,32.8
2017-07-17T14:03:38.924Z,31.8
2017-07-17T14:05:00.449Z,30.6
2017-07-17T14:06:01.823Z,30.5
2017-07-17T14:07:23.365Z,31.0
2017-07-17T14:08:24.735Z,31.2
2017-07-17T14:09:46.764Z,33.7
2017-07-17T14:10:48.136Z,32.4
2017-07-17T14:12:09.702Z,31.5
2017-07-17T14:13:11.075Z,31.2
2017-07-17T14:14:32.601Z,29.7
2017-07-17T14:15:33.972Z,30.0
2017-07-17T14:16:55.523Z,32.6
2017-07-17T14:17:56.891Z,31.1
2017-07-17T14:19:18.420Z,31.3
2017-07-17T14:20:19.792Z,31.5
2017-07-17T14:21:41.350Z,30.4
2017-07-17T14:22:42.707Z,30.2
2017-07-17T14:24:04.239Z,31.5
2017-07-17T14:25:05.609Z,31.4
2017-07-17T14:26:27.154Z,31.0
2017-07-17T14:27:28.524Z,29.7
2017-07-17T14:28:50.053Z,30.9
2017-07-17T14:29:51.455Z,31.3
2017-07-17T14:31:13.000Z,29.6
2017-07-17T14:32:14.377Z,30.5
2017-07-17T14:33:35.992Z,28.2
2017-07-17T14:34:37.362Z,27.5
2017-07-17T14:36:00.763Z,27.6
2017-07-17T14:37:02.498Z,28.6
2017-07-17T14:38:24.686Z,29.5
2017-07-17T14:39:26.066Z,30.2
2017-07-17T14:40:48.613Z,29.5
2017-07-17T14:41:49.987Z,30.3
2017-07-17T14:43:11.535Z,30.6
2017-07-17T14:44:12.916Z,31.0
2017-07-17T14:45:34.432Z,32.9
2017-07-17T14:46:35.804Z,31.8
2017-07-17T14:47:58.032Z,30.2
2017-07-17T14:48:59.412Z,29.5
2017-07-17T14:50:20.934Z,29.5
2017-07-17T14:51:22.312Z,28.9
2017-07-17T14:52:44.030Z,30.7
2017-07-17T14:53:45.464Z,30.3
2017-07-17T14:55:07.064Z,29.5
2017-07-17T14:56:08.462Z,29.1
2017-07-17T14:57:30.024Z,29.2
2017-07-17T14:58:31.408Z,29.9
2017-07-17T14:59:52.974Z,29.8
2017-07-17T15:00:54.467Z,30.5
2017-07-17T15:02:16.140Z,29.3
2017-07-17T15:03:17.511Z,29.3
2017-07-17T15:04:39.771Z,29.0
2017-07-17T15:05:41.175Z,29.4
2017-07-17T15:07:02.719Z,29.5
2017-07-17T15:08:04.090Z,29.1
2017-07-17T15:09:25.619Z,29.5
2017-07-17T15:10:27.008Z,30.8
2017-07-17T15:11:48.650Z,28.6
2017-07-17T15:12:50.086Z,28.1
2017-07-17T15:14:11.620Z,28.1
2017-07-17T15:15:12.988Z,28.6
2017-07-17T15:16:34.639Z,29.7
2017-07-17T15:17:36.016Z,30.9
2017-07-17T15:18:57.788Z,30.1
2017-07-17T15:19:59.184Z,29.0
2017-07-17T15:21:20.752Z,29.3
2017-07-17T15:22:22.125Z,29.4
2017-07-17T15:23:44.665Z,31.2
2017-07-17T15:24:46.035Z,29.9
2017-07-17T15:26:07.580Z,29.1
2017-07-17T15:27:09.009Z,28.9
2017-07-17T15:28:30.574Z,29.0
2017-07-17T15:29:31.948Z,30.3
2017-07-17T15:30:53.493Z,29.4
2017-07-17T15:31:54.906Z,29.3
2017-07-17T15:33:16.622Z,29.3
2017-07-17T15:34:18.009Z,29.9
2017-07-17T15:35:39.562Z,29.3
2017-07-17T15:36:40.934Z,29.6
2017-07-17T15:38:02.495Z,29.8
2017-07-17T15:39:03.878Z,30.0
2017-07-17T15:40:25.429Z,28.5
2017-07-17T15:41:26.820Z,28.2
2017-07-17T15:42:48.354Z,28.0
2017-07-17T15:43:49.725Z,28.2
2017-07-17T15:45:11.301Z,28.3
2017-07-17T15:46:12.671Z,28.6
2017-07-17T15:47:34.213Z,28.5
2017-07-17T15:48:35.817Z,28.0
2017-07-17T15:49:57.442Z,28.9
2017-07-17T15:50:58.936Z,28.6
2017-07-17T15:52:20.618Z,27.1
2017-07-17T15:53:22.100Z,27.3
2017-07-17T15:54:43.639Z,28.0
2017-07-17T15:55:45.163Z,28.3
2017-07-17T15:57:06.709Z,28.4
2017-07-17T15:58:08.082Z,28.1
2017-07-17T15:59:29.608Z,27.3
2017-07-17T16:00:30.977Z,27.4
2017-07-17T16:01:52.640Z,28.2
2017-07-17T16:02:54.083Z,28.4
2017-07-17T16:04:15.613Z,27.8
2017-07-17T16:05:16.997Z,28.3
2017-07-17T16:06:38.561Z,27.2
2017-07-17T16:07:40.854Z,27.7
2017-07-17T16:09:02.366Z,28.1
